sensor_id;sensor_type;location;lat;lon;timestamp;pressure;altitude;pressure_sealevel;temperature;humidity
31346;BME280;21711;49.708;18.568;2023-03-23T00:01:12;96905.94;;;9.74;91.03
31346;BME280;21711;49.708;18.568;2023-03-23T00:03:40;96909.38;;;9.75;90.84
31346;BME280;21711;49.708;18.568;2023-03-23T00:06:07;96900.47;;;9.66;90.80
31346;BME280;21711;49.708;18.568;2023-03-23T00:08:37;96904.53;;;9.82;90.83
31346;BME280;21711;49.708;18.568;2023-03-23T00:11:19;96897.88;;;9.90;88.82
31346;BME280;21711;49.708;18.568;2023-03-23T00:13:48;96902.38;;;10.19;88.58
31346;BME280;21711;49.708;18.568;2023-03-23T00:16:21;96897.84;;;9.95;87.58
31346;BME280;21711;49.708;18.568;2023-03-23T00:19:17;96896.34;;;9.84;87.45
31346;BME280;21711;49.708;18.568;2023-03-23T00:21:47;96896.84;;;9.91;89.30
31346;BME280;21711;49.708;18.568;2023-03-23T00:24:16;96908.50;;;9.85;89.84
31346;BME280;21711;49.708;18.568;2023-03-23T00:26:46;96891.31;;;9.87;89.50
31346;BME280;21711;49.708;18.568;2023-03-23T00:29:16;96896.78;;;9.62;91.13
31346;BME280;21711;49.708;18.568;2023-03-23T00:31:43;96892.31;;;9.57;90.95
31346;BME280;21711;49.708;18.568;2023-03-23T00:34:23;96893.16;;;9.87;90.42
31346;BME280;21711;49.708;18.568;2023-03-23T00:36:53;96896.75;;;10.31;88.75
31346;BME280;21711;49.708;18.568;2023-03-23T00:39:24;96892.44;;;10.65;85.42
31346;BME280;21711;49.708;18.568;2023-03-23T00:41:51;96891.50;;;10.26;88.16
31346;BME280;21711;49.708;18.568;2023-03-23T00:44:19;96884.97;;;10.18;87.95
31346;BME280;21711;49.708;18.568;2023-03-23T00:46:49;96885.34;;;10.06;89.34
31346;BME280;21711;49.708;18.568;2023-03-23T00:49:20;96882.47;;;10.03;88.91
31346;BME280;21711;49.708;18.568;2023-03-23T00:51:55;96884.63;;;10.00;89.66
31346;BME280;21711;49.708;18.568;2023-03-23T00:54:24;96893.88;;;9.98;89.70
31346;BME280;21711;49.708;18.568;2023-03-23T00:56:51;96883.81;;;10.00;89.25
31346;BME280;21711;49.708;18.568;2023-03-23T00:59:18;96883.72;;;10.10;90.27
31346;BME280;21711;49.708;18.568;2023-03-23T01:01:46;96887.19;;;9.76;89.34
31346;BME280;21711;49.708;18.568;2023-03-23T01:04:13;96875.78;;;9.81;90.56
31346;BME280;21711;49.708;18.568;2023-03-23T01:06:43;96888.81;;;9.67;90.70
31346;BME280;21711;49.708;18.568;2023-03-23T01:09:15;96883.78;;;9.70;89.95
31346;BME280;21711;49.708;18.568;2023-03-23T01:11:44;96888.09;;;9.56;90.66
31346;BME280;21711;49.708;18.568;2023-03-23T01:14:12;96890.63;;;9.71;90.89
31346;BME280;21711;49.708;18.568;2023-03-23T01:16:39;96891.25;;;9.63;90.75
31346;BME280;21711;49.708;18.568;2023-03-23T01:19:05;96888.28;;;9.99;89.09
31346;BME280;21711;49.708;18.568;2023-03-23T01:21:31;96888.84;;;10.56;85.79
31346;BME280;21711;49.708;18.568;2023-03-23T01:23:57;96898.75;;;10.94;83.16
31346;BME280;21711;49.708;18.568;2023-03-23T01:26:27;96883.78;;;10.84;82.83
31346;BME280;21711;49.708;18.568;2023-03-23T01:28:53;96895.66;;;10.62;83.87
31346;BME280;21711;49.708;18.568;2023-03-23T01:31:23;96898.22;;;10.91;83.59
31346;BME280;21711;49.708;18.568;2023-03-23T01:33:51;96888.56;;;10.82;83.26
31346;BME280;21711;49.708;18.568;2023-03-23T01:36:26;96885.06;;;10.62;83.50
31346;BME280;21711;49.708;18.568;2023-03-23T01:39:04;96896.50;;;10.82;82.86
31346;BME280;21711;49.708;18.568;2023-03-23T01:41:32;96896.09;;;10.94;82.04
31346;BME280;21711;49.708;18.568;2023-03-23T01:47:18;96897.91;;;10.49;86.20
31346;BME280;21711;49.708;18.568;2023-03-23T01:49:50;96887.59;;;10.18;87.15
31346;BME280;21711;49.708;18.568;2023-03-23T01:52:25;96889.81;;;10.11;87.04
31346;BME280;21711;49.708;18.568;2023-03-23T01:54:58;96889.16;;;10.24;87.65
31346;BME280;21711;49.708;18.568;2023-03-23T01:57:26;96892.25;;;10.32;88.03
31346;BME280;21711;49.708;18.568;2023-03-23T01:59:57;96888.03;;;10.31;86.24
31346;BME280;21711;49.708;18.568;2023-03-23T02:02:26;96889.53;;;10.37;86.36
31346;BME280;21711;49.708;18.568;2023-03-23T02:05:00;96888.16;;;10.45;87.25
31346;BME280;21711;49.708;18.568;2023-03-23T02:07:31;96871.25;;;10.16;87.45
31346;BME280;21711;49.708;18.568;2023-03-23T02:09:59;96873.47;;;10.04;88.04
31346;BME280;21711;49.708;18.568;2023-03-23T02:12:28;96875.28;;;10.08;88.32
31346;BME280;21711;49.708;18.568;2023-03-23T02:14:55;96880.31;;;10.34;87.01
31346;BME280;21711;49.708;18.568;2023-03-23T02:17:24;96876.97;;;10.53;86.09
31346;BME280;21711;49.708;18.568;2023-03-23T02:20:47;96869.06;;;10.97;83.21
31346;BME280;21711;49.708;18.568;2023-03-23T02:26:50;96880.28;;;10.88;84.18
31346;BME280;21711;49.708;18.568;2023-03-23T02:32:00;96867.34;;;11.06;81.96
31346;BME280;21711;49.708;18.568;2023-03-23T02:34:53;96856.28;;;11.23;82.88
31346;BME280;21711;49.708;18.568;2023-03-23T02:37:38;96859.06;;;11.13;83.93
31346;BME280;21711;49.708;18.568;2023-03-23T02:40:12;96861.38;;;11.00;84.83
31346;BME280;21711;49.708;18.568;2023-03-23T02:42:46;96856.59;;;10.78;83.83
31346;BME280;21711;49.708;18.568;2023-03-23T02:45:14;96859.03;;;10.74;84.28
31346;BME280;21711;49.708;18.568;2023-03-23T02:47:42;96851.03;;;10.79;85.55
31346;BME280;21711;49.708;18.568;2023-03-23T02:50:13;96848.84;;;10.62;84.83
31346;BME280;21711;49.708;18.568;2023-03-23T02:52:44;96852.28;;;10.63;84.54
31346;BME280;21711;49.708;18.568;2023-03-23T02:55:11;96851.09;;;10.74;83.80
31346;BME280;21711;49.708;18.568;2023-03-23T02:57:40;96856.94;;;10.71;85.20
31346;BME280;21711;49.708;18.568;2023-03-23T03:00:15;96852.56;;;10.61;85.02
31346;BME280;21711;49.708;18.568;2023-03-23T03:02:44;96860.28;;;10.58;84.54
31346;BME280;21711;49.708;18.568;2023-03-23T03:05:53;96857.66;;;10.58;86.01
31346;BME280;21711;49.708;18.568;2023-03-23T03:08:52;96859.81;;;10.75;84.56
31346;BME280;21711;49.708;18.568;2023-03-23T03:11:21;96866.41;;;10.77;84.85
31346;BME280;21711;49.708;18.568;2023-03-23T03:14:09;96864.88;;;10.71;85.08
31346;BME280;21711;49.708;18.568;2023-03-23T03:19:47;96867.84;;;10.89;82.92
31346;BME280;21711;49.708;18.568;2023-03-23T03:22:15;96858.34;;;11.07;82.04
31346;BME280;21711;49.708;18.568;2023-03-23T03:24:43;96856.41;;;11.13;81.41
31346;BME280;21711;49.708;18.568;2023-03-23T03:27:16;96860.16;;;11.12;83.08
31346;BME280;21711;49.708;18.568;2023-03-23T03:29:51;96859.56;;;10.96;83.53
31346;BME280;21711;49.708;18.568;2023-03-23T03:32:24;96859.00;;;10.99;81.77
31346;BME280;21711;49.708;18.568;2023-03-23T03:34:52;96858.41;;;11.02;82.04
31346;BME280;21711;49.708;18.568;2023-03-23T03:37:20;96852.84;;;11.03;81.58
31346;BME280;21711;49.708;18.568;2023-03-23T03:39:48;96862.47;;;10.94;84.64
31346;BME280;21711;49.708;18.568;2023-03-23T03:42:14;96858.13;;;10.84;84.50
31346;BME280;21711;49.708;18.568;2023-03-23T03:44:40;96851.09;;;10.74;83.01
31346;BME280;21711;49.708;18.568;2023-03-23T03:47:06;96858.53;;;10.72;83.90
31346;BME280;21711;49.708;18.568;2023-03-23T03:49:32;96855.94;;;10.67;85.05
31346;BME280;21711;49.708;18.568;2023-03-23T03:51:59;96856.50;;;10.64;86.42
31346;BME280;21711;49.708;18.568;2023-03-23T03:54:34;96860.91;;;10.49;85.84
31346;BME280;21711;49.708;18.568;2023-03-23T03:57:01;96868.44;;;10.32;87.40
31346;BME280;21711;49.708;18.568;2023-03-23T03:59:53;96866.56;;;10.37;86.84
31346;BME280;21711;49.708;18.568;2023-03-23T04:02:19;96873.19;;;10.35;87.11
31346;BME280;21711;49.708;18.568;2023-03-23T04:04:49;96873.25;;;10.30;87.39
31346;BME280;21711;49.708;18.568;2023-03-23T04:07:19;96874.75;;;10.36;85.87
31346;BME280;21711;49.708;18.568;2023-03-23T04:09:46;96878.75;;;10.33;86.02
31346;BME280;21711;49.708;18.568;2023-03-23T04:12:15;96872.59;;;10.43;85.03
31346;BME280;21711;49.708;18.568;2023-03-23T04:14:57;96874.56;;;10.57;84.96
31346;BME280;21711;49.708;18.568;2023-03-23T04:17:32;96874.88;;;10.55;84.87
31346;BME280;21711;49.708;18.568;2023-03-23T04:19:58;96877.44;;;10.60;84.27
31346;BME280;21711;49.708;18.568;2023-03-23T04:22:27;96871.09;;;10.61;84.88
31346;BME280;21711;49.708;18.568;2023-03-23T04:25:00;96868.88;;;10.44;85.46
31346;BME280;21711;49.708;18.568;2023-03-23T04:27:29;96854.06;;;10.43;84.78
31346;BME280;21711;49.708;18.568;2023-03-23T04:29:58;96860.56;;;10.56;83.83
31346;BME280;21711;49.708;18.568;2023-03-23T04:32:33;96860.44;;;10.67;83.15
31346;BME280;21711;49.708;18.568;2023-03-23T04:35:00;96860.03;;;10.78;83.25
31346;BME280;21711;49.708;18.568;2023-03-23T04:37:33;96853.31;;;10.67;83.32
31346;BME280;21711;49.708;18.568;2023-03-23T04:39:59;96848.84;;;10.62;85.21
31346;BME280;21711;49.708;18.568;2023-03-23T04:42:30;96852.47;;;10.42;86.54
31346;BME280;21711;49.708;18.568;2023-03-23T04:45:21;96844.13;;;10.05;85.02
31346;BME280;21711;49.708;18.568;2023-03-23T04:47:50;96840.66;;;9.80;86.40
31346;BME280;21711;49.708;18.568;2023-03-23T04:50:29;96848.38;;;9.71;89.54
31346;BME280;21711;49.708;18.568;2023-03-23T04:53:03;96838.44;;;9.63;89.84
31346;BME280;21711;49.708;18.568;2023-03-23T04:55:34;96843.19;;;9.61;91.05
31346;BME280;21711;49.708;18.568;2023-03-23T04:58:08;96851.16;;;9.56;88.80
31346;BME280;21711;49.708;18.568;2023-03-23T05:00:41;96850.34;;;9.60;90.40
31346;BME280;21711;49.708;18.568;2023-03-23T05:03:10;96847.44;;;9.57;90.12
31346;BME280;21711;49.708;18.568;2023-03-23T05:05:37;96846.41;;;9.58;89.32
31346;BME280;21711;49.708;18.568;2023-03-23T05:08:06;96848.16;;;9.68;89.21
31346;BME280;21711;49.708;18.568;2023-03-23T05:10:36;96852.91;;;9.71;87.66
31346;BME280;21711;49.708;18.568;2023-03-23T05:13:07;96846.66;;;9.91;87.37
31346;BME280;21711;49.708;18.568;2023-03-23T05:15:34;96850.72;;;10.08;87.33
31346;BME280;21711;49.708;18.568;2023-03-23T05:18:02;96850.06;;;10.21;87.04
31346;BME280;21711;49.708;18.568;2023-03-23T05:20:30;96837.94;;;10.20;86.83
31346;BME280;21711;49.708;18.568;2023-03-23T05:23:03;96845.00;;;10.25;86.37
31346;BME280;21711;49.708;18.568;2023-03-23T05:25:33;96850.81;;;10.51;85.28
31346;BME280;21711;49.708;18.568;2023-03-23T05:28:09;96843.28;;;10.64;85.22
31346;BME280;21711;49.708;18.568;2023-03-23T05:30:52;96848.78;;;10.68;83.40
31346;BME280;21711;49.708;18.568;2023-03-23T05:33:20;96852.31;;;10.82;82.99
31346;BME280;21711;49.708;18.568;2023-03-23T05:36:25;96842.78;;;11.05;81.90
31346;BME280;21711;49.708;18.568;2023-03-23T05:39:14;96843.34;;;11.22;79.46
31346;BME280;21711;49.708;18.568;2023-03-23T05:41:59;96859.19;;;11.60;79.95
31346;BME280;21711;49.708;18.568;2023-03-23T05:44:32;96855.94;;;11.96;78.11
31346;BME280;21711;49.708;18.568;2023-03-23T05:46:59;96855.44;;;12.42;76.11
31346;BME280;21711;49.708;18.568;2023-03-23T05:49:26;96861.63;;;12.93;73.03
31346;BME280;21711;49.708;18.568;2023-03-23T05:51:54;96864.34;;;13.53;71.09
31346;BME280;21711;49.708;18.568;2023-03-23T05:54:20;96879.69;;;14.11;69.18
31346;BME280;21711;49.708;18.568;2023-03-23T05:56:48;96881.50;;;14.73;66.61
31346;BME280;21711;49.708;18.568;2023-03-23T05:59:40;96887.13;;;15.83;62.64
31346;BME280;21711;49.708;18.568;2023-03-23T06:02:12;96886.88;;;16.33;60.32
31346;BME280;21711;49.708;18.568;2023-03-23T06:04:40;96884.78;;;16.47;58.41
31346;BME280;21711;49.708;18.568;2023-03-23T06:07:16;96877.16;;;16.67;58.87
31346;BME280;21711;49.708;18.568;2023-03-23T06:09:54;96891.25;;;17.06;57.74
31346;BME280;21711;49.708;18.568;2023-03-23T06:12:23;96887.00;;;17.69;55.39
31346;BME280;21711;49.708;18.568;2023-03-23T06:15:13;96893.59;;;17.51;53.07
31346;BME280;21711;49.708;18.568;2023-03-23T06:18:05;96889.03;;;17.51;52.88
31346;BME280;21711;49.708;18.568;2023-03-23T06:20:39;96892.09;;;17.41;54.21
31346;BME280;21711;49.708;18.568;2023-03-23T06:23:26;96884.78;;;17.50;52.41
31346;BME280;21711;49.708;18.568;2023-03-23T06:25:59;96887.75;;;17.15;55.84
31346;BME280;21711;49.708;18.568;2023-03-23T06:28:27;96879.13;;;17.30;54.13
31346;BME280;21711;49.708;18.568;2023-03-23T06:30:54;96876.31;;;17.05;54.03
31346;BME280;21711;49.708;18.568;2023-03-23T06:33:21;96873.72;;;17.18;54.51
31346;BME280;21711;49.708;18.568;2023-03-23T06:36:07;96876.94;;;17.11;56.96
31346;BME280;21711;49.708;18.568;2023-03-23T06:38:43;96867.13;;;17.15;58.59
31346;BME280;21711;49.708;18.568;2023-03-23T06:41:11;96873.88;;;17.43;54.28
31346;BME280;21711;49.708;18.568;2023-03-23T06:43:37;96872.25;;;17.97;55.02
31346;BME280;21711;49.708;18.568;2023-03-23T06:46:13;96877.06;;;18.62;54.42
31346;BME280;21711;49.708;18.568;2023-03-23T06:48:40;96874.88;;;19.30;48.54
31346;BME280;21711;49.708;18.568;2023-03-23T06:51:07;96874.47;;;19.16;49.16
31346;BME280;21711;49.708;18.568;2023-03-23T06:53:35;96877.28;;;18.57;49.66
31346;BME280;21711;49.708;18.568;2023-03-23T06:56:03;96877.06;;;18.04;51.10
31346;BME280;21711;49.708;18.568;2023-03-23T06:58:31;96869.41;;;17.68;57.54
31346;BME280;21711;49.708;18.568;2023-03-23T07:00:58;96878.09;;;17.44;56.34
31346;BME280;21711;49.708;18.568;2023-03-23T07:03:35;96874.81;;;17.38;52.60
31346;BME280;21711;49.708;18.568;2023-03-23T07:06:03;96881.06;;;17.64;52.03
31346;BME280;21711;49.708;18.568;2023-03-23T07:08:34;96881.16;;;17.88;52.40
31346;BME280;21711;49.708;18.568;2023-03-23T07:11:01;96878.31;;;17.72;52.08
31346;BME280;21711;49.708;18.568;2023-03-23T07:13:29;96877.53;;;17.72;54.45
31346;BME280;21711;49.708;18.568;2023-03-23T07:15:59;96878.72;;;17.62;58.06
31346;BME280;21711;49.708;18.568;2023-03-23T07:18:27;96877.03;;;17.57;58.26
31346;BME280;21711;49.708;18.568;2023-03-23T07:20:56;96882.41;;;17.36;56.63
31346;BME280;21711;49.708;18.568;2023-03-23T07:23:29;96882.41;;;17.15;53.25
31346;BME280;21711;49.708;18.568;2023-03-23T07:26:08;96878.75;;;17.19;53.22
31346;BME280;21711;49.708;18.568;2023-03-23T07:28:38;96873.78;;;17.30;54.54
31346;BME280;21711;49.708;18.568;2023-03-23T07:31:24;96875.59;;;17.60;53.96
31346;BME280;21711;49.708;18.568;2023-03-23T07:33:51;96879.38;;;17.80;53.96
31346;BME280;21711;49.708;18.568;2023-03-23T07:36:18;96877.56;;;17.84;53.79
31346;BME280;21711;49.708;18.568;2023-03-23T07:38:44;96885.25;;;18.07;54.84
31346;BME280;21711;49.708;18.568;2023-03-23T07:41:12;96890.44;;;18.62;52.09
31346;BME280;21711;49.708;18.568;2023-03-23T07:43:41;96890.63;;;19.61;45.47
31346;BME280;21711;49.708;18.568;2023-03-23T07:46:20;96890.38;;;20.39;41.64
31346;BME280;21711;49.708;18.568;2023-03-23T07:49:10;96904.66;;;22.06;37.98
31346;BME280;21711;49.708;18.568;2023-03-23T07:51:42;96911.41;;;23.82;36.31
31346;BME280;21711;49.708;18.568;2023-03-23T07:54:11;96923.56;;;23.99;34.64
31346;BME280;21711;49.708;18.568;2023-03-23T07:57:16;96924.88;;;25.96;31.45
31346;BME280;21711;49.708;18.568;2023-03-23T07:59:48;96928.88;;;26.53;29.68
31346;BME280;21711;49.708;18.568;2023-03-23T08:02:14;96924.56;;;27.14;28.18
31346;BME280;21711;49.708;18.568;2023-03-23T08:04:53;96920.56;;;27.51;28.06
31346;BME280;21711;49.708;18.568;2023-03-23T08:07:22;96917.22;;;26.78;27.89
31346;BME280;21711;49.708;18.568;2023-03-23T08:10:18;96909.75;;;24.99;30.19
31346;BME280;21711;49.708;18.568;2023-03-23T08:13:13;96907.28;;;24.79;31.25
31346;BME280;21711;49.708;18.568;2023-03-23T08:15:51;96914.50;;;26.96;29.12
31346;BME280;21711;49.708;18.568;2023-03-23T08:18:28;96914.03;;;28.73;26.25
31346;BME280;21711;49.708;18.568;2023-03-23T08:20:54;96922.50;;;28.29;26.40
31346;BME280;21711;49.708;18.568;2023-03-23T08:23:33;96919.28;;;28.95;24.82
31346;BME280;21711;49.708;18.568;2023-03-23T08:26:22;96917.63;;;26.95;25.79
31346;BME280;21711;49.708;18.568;2023-03-23T08:29:21;96917.13;;;24.53;28.49
31346;BME280;21711;49.708;18.568;2023-03-23T08:32:04;96916.13;;;24.72;28.95
31346;BME280;21711;49.708;18.568;2023-03-23T08:34:42;96912.81;;;25.71;27.97
31346;BME280;21711;49.708;18.568;2023-03-23T08:37:24;96915.06;;;28.41;26.69
31346;BME280;21711;49.708;18.568;2023-03-23T08:39:54;96935.59;;;31.22;23.45
31346;BME280;21711;49.708;18.568;2023-03-23T08:42:52;96926.81;;;32.62;20.82
31346;BME280;21711;49.708;18.568;2023-03-23T08:45:50;96928.44;;;31.29;22.25
31346;BME280;21711;49.708;18.568;2023-03-23T08:48:55;96922.38;;;31.61;22.78
31346;BME280;21711;49.708;18.568;2023-03-23T08:52:03;96920.47;;;31.79;21.75
31346;BME280;21711;49.708;18.568;2023-03-23T08:54:52;96913.69;;;33.16;20.57
31346;BME280;21711;49.708;18.568;2023-03-23T08:58:10;96915.31;;;31.64;20.73
31346;BME280;21711;49.708;18.568;2023-03-23T09:00:54;96910.19;;;31.26;20.43
31346;BME280;21711;49.708;18.568;2023-03-23T09:03:29;96918.63;;;30.91;20.85
31346;BME280;21711;49.708;18.568;2023-03-23T09:06:15;96911.03;;;30.78;21.94
31346;BME280;21711;49.708;18.568;2023-03-23T09:08:44;96909.16;;;30.24;20.58
31346;BME280;21711;49.708;18.568;2023-03-23T09:11:11;96917.44;;;30.92;21.23
31346;BME280;21711;49.708;18.568;2023-03-23T09:13:38;96911.34;;;31.24;20.14
31346;BME280;21711;49.708;18.568;2023-03-23T09:16:07;96910.59;;;31.24;20.19
31346;BME280;21711;49.708;18.568;2023-03-23T09:18:34;96920.66;;;31.51;20.94
31346;BME280;21711;49.708;18.568;2023-03-23T09:21:01;96908.34;;;27.92;22.29
31346;BME280;21711;49.708;18.568;2023-03-23T09:23:29;96916.44;;;27.03;24.57
31346;BME280;21711;49.708;18.568;2023-03-23T09:25:56;96920.69;;;27.08;24.85
31346;BME280;21711;49.708;18.568;2023-03-23T09:28:22;96910.97;;;27.17;24.53
31346;BME280;21711;49.708;18.568;2023-03-23T09:30:48;96929.88;;;30.45;22.54
31346;BME280;21711;49.708;18.568;2023-03-23T09:33:15;96927.53;;;30.19;21.76
31346;BME280;21711;49.708;18.568;2023-03-23T09:35:41;96929.28;;;30.34;21.69
31346;BME280;21711;49.708;18.568;2023-03-23T09:38:10;96938.75;;;31.21;21.87
31346;BME280;21711;49.708;18.568;2023-03-23T09:40:58;96926.84;;;32.09;20.46
31346;BME280;21711;49.708;18.568;2023-03-23T09:49:08;96907.34;;;23.61;28.95
31346;BME280;21711;49.708;18.568;2023-03-23T09:54:52;96899.28;;;22.30;30.45
31346;BME280;21711;49.708;18.568;2023-03-23T10:00:12;96907.81;;;24.95;28.75
31346;BME280;21711;49.708;18.568;2023-03-23T10:05:50;96914.84;;;26.04;26.65
31346;BME280;21711;49.708;18.568;2023-03-23T10:08:22;96921.91;;;28.56;23.96
31346;BME280;21711;49.708;18.568;2023-03-23T10:16:31;96926.16;;;30.35;22.24
31346;BME280;21711;49.708;18.568;2023-03-23T10:22:12;96917.72;;;29.67;23.43
31346;BME280;21711;49.708;18.568;2023-03-23T10:24:51;96898.56;;;25.93;26.33
31346;BME280;21711;49.708;18.568;2023-03-23T10:27:34;96899.81;;;24.58;28.69
31346;BME280;21711;49.708;18.568;2023-03-23T10:33:30;96877.53;;;23.50;29.99
31346;BME280;21711;49.708;18.568;2023-03-23T10:36:20;96871.38;;;22.65;31.51
31346;BME280;21711;49.708;18.568;2023-03-23T10:41:34;96875.69;;;21.01;33.96
31346;BME280;21711;49.708;18.568;2023-03-23T10:44:00;96881.56;;;21.07;34.64
31346;BME280;21711;49.708;18.568;2023-03-23T10:47:03;96885.22;;;20.98;34.06
31346;BME280;21711;49.708;18.568;2023-03-23T10:49:58;96870.63;;;20.15;34.57
31346;BME280;21711;49.708;18.568;2023-03-23T10:52:36;96864.47;;;19.41;36.43
31346;BME280;21711;49.708;18.568;2023-03-23T10:55:18;96867.94;;;19.70;36.95
31346;BME280;21711;49.708;18.568;2023-03-23T10:57:58;96862.06;;;19.81;37.65
31346;BME280;21711;49.708;18.568;2023-03-23T11:00:28;96868.28;;;20.14;37.10
31346;BME280;21711;49.708;18.568;2023-03-23T11:03:19;96869.94;;;20.18;37.66
31346;BME280;21711;49.708;18.568;2023-03-23T11:06:02;96865.84;;;20.57;35.29
31346;BME280;21711;49.708;18.568;2023-03-23T11:08:35;96880.09;;;20.93;36.07
31346;BME280;21711;49.708;18.568;2023-03-23T11:11:29;96873.75;;;21.01;35.86
31346;BME280;21711;49.708;18.568;2023-03-23T11:17:02;96870.44;;;20.40;35.53
31346;BME280;21711;49.708;18.568;2023-03-23T11:19:32;96871.03;;;21.18;34.82
31346;BME280;21711;49.708;18.568;2023-03-23T11:24:41;96876.38;;;24.27;31.27
31346;BME280;21711;49.708;18.568;2023-03-23T11:27:09;96887.34;;;25.91;29.04
31346;BME280;21711;49.708;18.568;2023-03-23T11:29:52;96878.47;;;25.97;28.39
31346;BME280;21711;49.708;18.568;2023-03-23T11:32:28;96877.16;;;24.77;29.63
31346;BME280;21711;49.708;18.568;2023-03-23T11:35:05;96870.84;;;24.58;29.21
31346;BME280;21711;49.708;18.568;2023-03-23T11:37:42;96875.75;;;26.23;27.54
31346;BME280;21711;49.708;18.568;2023-03-23T11:49:01;96865.72;;;23.01;32.01
31346;BME280;21711;49.708;18.568;2023-03-23T11:51:44;96859.47;;;22.66;31.48
31346;BME280;21711;49.708;18.568;2023-03-23T11:56:55;96839.50;;;21.97;32.35
31346;BME280;21711;49.708;18.568;2023-03-23T11:59:31;96842.06;;;22.87;31.92
31346;BME280;21711;49.708;18.568;2023-03-23T12:12:04;96848.63;;;25.72;27.59
31346;BME280;21711;49.708;18.568;2023-03-23T12:20:38;96827.94;;;23.62;30.11
31346;BME280;21711;49.708;18.568;2023-03-23T12:23:23;96822.63;;;22.74;31.47
31346;BME280;21711;49.708;18.568;2023-03-23T12:26:25;96817.72;;;22.29;31.28
31346;BME280;21711;49.708;18.568;2023-03-23T12:37:58;96806.44;;;21.14;35.17
31346;BME280;21711;49.708;18.568;2023-03-23T12:43:27;96817.03;;;20.87;36.54
31346;BME280;21711;49.708;18.568;2023-03-23T12:48:42;96813.63;;;20.54;35.81
31346;BME280;21711;49.708;18.568;2023-03-23T12:57:27;96815.47;;;20.18;37.68
31346;BME280;21711;49.708;18.568;2023-03-23T13:08:10;96814.09;;;20.60;37.39
31346;BME280;21711;49.708;18.568;2023-03-23T13:10:50;96798.88;;;20.48;37.13
31346;BME280;21711;49.708;18.568;2023-03-23T13:13:39;96809.56;;;20.28;37.64
31346;BME280;21711;49.708;18.568;2023-03-23T13:19:51;96805.66;;;20.26;37.50
31346;BME280;21711;49.708;18.568;2023-03-23T13:22:37;96803.00;;;20.09;38.32
31346;BME280;21711;49.708;18.568;2023-03-23T13:25:17;96798.16;;;20.15;37.04
31346;BME280;21711;49.708;18.568;2023-03-23T13:27:56;96788.84;;;19.80;37.17
31346;BME280;21711;49.708;18.568;2023-03-23T13:30:22;96799.25;;;19.82;37.86
31346;BME280;21711;49.708;18.568;2023-03-23T13:32:50;96799.44;;;19.89;39.17
31346;BME280;21711;49.708;18.568;2023-03-23T13:35:19;96783.03;;;19.62;38.32
31346;BME280;21711;49.708;18.568;2023-03-23T13:37:51;96780.16;;;19.55;39.22
31346;BME280;21711;49.708;18.568;2023-03-23T13:40:26;96781.28;;;19.99;38.65
31346;BME280;21711;49.708;18.568;2023-03-23T13:42:56;96782.84;;;20.16;37.46
31346;BME280;21711;49.708;18.568;2023-03-23T13:45:46;96788.97;;;20.16;37.06
31346;BME280;21711;49.708;18.568;2023-03-23T13:51:00;96778.59;;;20.50;36.38
31346;BME280;21711;49.708;18.568;2023-03-23T13:53:31;96778.75;;;20.22;36.81
31346;BME280;21711;49.708;18.568;2023-03-23T13:56:21;96778.91;;;19.81;37.58
31346;BME280;21711;49.708;18.568;2023-03-23T13:59:16;96775.69;;;19.91;38.52
31346;BME280;21711;49.708;18.568;2023-03-23T14:01:43;96773.41;;;20.06;37.40
31346;BME280;21711;49.708;18.568;2023-03-23T14:04:19;96775.47;;;20.13;37.51
31346;BME280;21711;49.708;18.568;2023-03-23T14:06:49;96779.69;;;20.30;36.56
31346;BME280;21711;49.708;18.568;2023-03-23T14:09:33;96773.44;;;20.42;37.84
31346;BME280;21711;49.708;18.568;2023-03-23T14:12:13;96769.53;;;20.39;38.00
31346;BME280;21711;49.708;18.568;2023-03-23T14:14:45;96778.50;;;20.11;37.39
31346;BME280;21711;49.708;18.568;2023-03-23T14:17:31;96770.09;;;20.29;38.70
31346;BME280;21711;49.708;18.568;2023-03-23T14:19:59;96779.28;;;20.12;38.26
31346;BME280;21711;49.708;18.568;2023-03-23T14:22:37;96772.97;;;20.20;38.70
31346;BME280;21711;49.708;18.568;2023-03-23T14:25:18;96777.34;;;20.28;38.22
31346;BME280;21711;49.708;18.568;2023-03-23T14:27:47;96779.09;;;20.20;39.04
31346;BME280;21711;49.708;18.568;2023-03-23T14:30:17;96768.25;;;19.84;39.46
31346;BME280;21711;49.708;18.568;2023-03-23T14:32:44;96772.22;;;19.91;37.82
31346;BME280;21711;49.708;18.568;2023-03-23T14:35:25;96772.06;;;19.83;38.63
31346;BME280;21711;49.708;18.568;2023-03-23T14:37:53;96768.44;;;19.92;38.58
31346;BME280;21711;49.708;18.568;2023-03-23T14:40:20;96766.75;;;20.00;39.39
31346;BME280;21711;49.708;18.568;2023-03-23T14:42:46;96766.75;;;20.00;38.29
31346;BME280;21711;49.708;18.568;2023-03-23T14:45:17;96767.56;;;19.88;38.52
31346;BME280;21711;49.708;18.568;2023-03-23T14:47:51;96769.72;;;19.82;37.99
31346;BME280;21711;49.708;18.568;2023-03-23T14:52:49;96771.53;;;19.78;38.86
31346;BME280;21711;49.708;18.568;2023-03-23T14:55:21;96774.22;;;19.78;38.83
31346;BME280;21711;49.708;18.568;2023-03-23T14:57:49;96776.13;;;19.61;39.74
31346;BME280;21711;49.708;18.568;2023-03-23T15:00:23;96774.31;;;19.81;39.46
31346;BME280;21711;49.708;18.568;2023-03-23T15:02:55;96762.81;;;19.81;40.44
31346;BME280;21711;49.708;18.568;2023-03-23T15:05:35;96765.84;;;19.95;41.39
31346;BME280;21711;49.708;18.568;2023-03-23T15:08:07;96766.03;;;19.87;39.76
31346;BME280;21711;49.708;18.568;2023-03-23T15:10:37;96760.19;;;19.68;40.58
31346;BME280;21711;49.708;18.568;2023-03-23T15:13:03;96757.69;;;19.60;39.60
31346;BME280;21711;49.708;18.568;2023-03-23T15:15:35;96749.31;;;19.61;40.51
31346;BME280;21711;49.708;18.568;2023-03-23T15:18:03;96750.28;;;19.40;40.71
31346;BME280;21711;49.708;18.568;2023-03-23T15:20:48;96744.81;;;19.21;41.43